Time;durP1;ratioP1;P1;durP2;ratioP2;P2;SDS_P1;SDS_P2;PMS_P1;PMS_P2;Temp;Humidity;BMP_temperature;BMP_pressure;BME280_temperature;BME280_humidity;BME280_pressure;Samples;Min_cycle;Max_cycle;Signal;HPM_P1;HPM_P2
2021/12/05 00:19:48;;;;;;;8.70;4.82;;;6.50;63.40;;;;;;5036301;28;20096;-24
2021/12/05 00:22:24;;;;;;;5.88;3.40;;;6.50;63.60;;;;;;5035973;28;20495;-25
2021/12/05 00:24:55;;;;;;;3.80;2.67;;;6.50;63.50;;;;;;5036138;28;20104;-24
2021/12/05 00:27:34;;;;;;;4.15;2.53;;;6.60;63.60;;;;;;5036391;28;20056;-24
2021/12/05 00:46:16;;;;;;;8.55;5.10;;;6.60;63.50;;;;;;5036078;28;20124;-24
2021/12/05 00:49:19;;;;;;;;;;;6.60;63.70;;;;;;5036159;28;20033;-23
2021/12/05 00:57:16;;;;;;;5.50;3.55;;;6.60;63.60;;;;;;5035824;28;20120;-25
2021/12/05 00:59:57;;;;;;;5.28;3.38;;;6.60;63.60;;;;;;5035943;28;20033;-25
2021/12/05 01:02:44;;;;;;;6.38;3.67;;;6.60;63.80;;;;;;5035541;28;20477;-25
2021/12/05 01:15:42;;;;;;;5.80;4.10;;;6.60;63.80;;;;;;5035233;28;20036;-24
2021/12/05 01:18:13;;;;;;;7.22;4.53;;;6.60;63.80;;;;;;5035144;28;20022;-26
2021/12/05 01:20:43;;;;;;;9.20;5.53;;;6.60;63.90;;;;;;5035315;28;20075;-25
2021/12/05 01:23:27;;;;;;;10.40;6.00;;;6.60;64.00;;;;;;5035030;28;20030;-24
2021/12/05 01:26:08;;;;;;;7.13;4.60;;;6.60;64.00;;;;;;5035355;28;20084;-24
2021/12/05 01:28:59;;;;;;;9.68;6.13;;;6.60;64.00;;;;;;5035109;28;20029;-23
2021/12/05 01:34:11;;;;;;;5.72;3.30;;;6.50;64.10;;;;;;5034854;28;20057;-25
2021/12/05 02:42:34;;;;;;;7.20;4.25;;;6.90;64.30;;;;;;4953326;29;20039;-25
2021/12/05 02:45:05;;;;;;;8.10;4.50;;;6.90;64.40;;;;;;4953375;29;20432;-25
2021/12/05 02:47:33;;;;;;;6.82;4.68;;;6.90;64.40;;;;;;4953714;29;20039;-24
2021/12/05 02:50:02;;;;;;;8.38;4.78;;;6.90;64.50;;;;;;4953188;29;20471;-25
2021/12/05 02:52:32;;;;;;;10.90;7.15;;;6.90;64.50;;;;;;4953028;29;20054;-25
2021/12/05 02:55:23;;;;;;;9.05;5.55;;;6.90;64.50;;;;;;4953333;29;20033;-24
2021/12/05 02:57:59;;;;;;;7.57;4.60;;;6.80;64.70;;;;;;4953229;29;20058;-25
2021/12/05 03:03:24;;;;;;;5.88;3.83;;;6.80;64.80;;;;;;4944327;29;20035;-24
2021/12/05 03:06:03;;;;;;;9.18;5.97;;;6.70;64.90;;;;;;4953066;29;20541;-25
2021/12/05 03:08:30;;;;;;;7.65;4.82;;;6.80;65.00;;;;;;4952993;29;20027;-24
2021/12/05 03:10:59;;;;;;;5.72;3.67;;;6.70;65.10;;;;;;4953119;29;20039;-24
2021/12/05 03:13:26;;;;;;;7.82;4.07;;;6.70;65.10;;;;;;4953063;28;20035;-24
2021/12/05 03:15:55;;;;;;;5.45;3.85;;;6.70;65.10;;;;;;4953047;29;20373;-25
2021/12/05 03:18:25;;;;;;;8.80;5.97;;;6.70;65.10;;;;;;5002445;28;20116;-24
2021/12/05 03:20:51;;;;;;;15.65;9.82;;;6.70;65.30;;;;;;5033291;28;20032;-24
2021/12/05 03:23:17;;;;;;;9.00;5.65;;;6.70;65.90;;;;;;5033619;28;20025;-24
2021/12/05 03:25:43;;;;;;;8.93;5.50;;;6.60;65.80;;;;;;5033017;28;20033;-24
2021/12/05 03:28:10;;;;;;;7.03;4.65;;;6.60;65.50;;;;;;5032994;28;20028;-24
2021/12/05 03:30:37;;;;;;;10.45;6.68;;;6.60;65.40;;;;;;5033098;28;20017;-25
2021/12/05 03:33:04;;;;;;;14.10;8.02;;;6.60;65.50;;;;;;5031497;28;20099;-25
2021/12/05 03:35:30;;;;;;;9.93;5.70;;;6.60;65.50;;;;;;5033529;28;20026;-24
2021/12/05 03:37:58;;;;;;;7.88;4.43;;;6.60;65.60;;;;;;5035750;28;20033;-25
2021/12/05 03:40:28;;;;;;;9.57;5.95;;;6.60;65.70;;;;;;5036797;28;20032;-25
2021/12/05 03:42:56;;;;;;;7.35;4.53;;;6.60;65.70;;;;;;5036851;28;20076;-25
2021/12/05 03:45:28;;;;;;;6.07;3.60;;;6.60;65.70;;;;;;5037184;28;20477;-25
2021/12/05 03:47:56;;;;;;;8.38;5.00;;;6.60;65.70;;;;;;5036868;28;20036;-25
2021/12/05 03:50:23;;;;;;;9.77;6.10;;;6.60;65.70;;;;;;5036452;28;20053;-25
2021/12/05 03:52:49;;;;;;;8.80;5.32;;;6.60;65.80;;;;;;5035526;28;20108;-25
2021/12/05 03:55:16;;;;;;;7.30;5.05;;;6.50;65.80;;;;;;5036698;28;20037;-25
2021/12/05 03:57:42;;;;;;;7.03;4.82;;;6.50;65.80;;;;;;5036877;28;20489;-25
2021/12/05 04:00:20;;;;;;;12.43;8.10;;;6.60;66.00;;;;;;5036891;28;20032;-25
2021/12/05 04:02:49;;;;;;;13.32;8.10;;;6.60;65.90;;;;;;5036926;28;20032;-24
2021/12/05 04:05:16;;;;;;;12.15;7.63;;;6.60;65.90;;;;;;5035203;28;20025;-24
2021/12/05 04:07:43;;;;;;;14.00;8.32;;;6.70;66.10;;;;;;5036734;28;20021;-25
2021/12/05 04:10:09;;;;;;;14.25;8.75;;;6.70;66.20;;;;;;5036672;28;20030;-25
2021/12/05 04:12:36;;;;;;;11.23;6.95;;;6.70;66.00;;;;;;5036371;28;20159;-25
2021/12/05 04:15:03;;;;;;;13.30;8.20;;;6.70;66.00;;;;;;5036892;28;20110;-25
2021/12/05 04:17:29;;;;;;;12.73;8.15;;;6.80;65.90;;;;;;5036242;28;20026;-25
2021/12/05 04:19:56;;;;;;;11.82;8.20;;;6.80;65.90;;;;;;5036403;28;20021;-24
2021/12/05 04:22:22;;;;;;;9.65;6.32;;;6.80;65.90;;;;;;5036194;28;20030;-25
2021/12/05 04:24:49;;;;;;;9.23;5.55;;;6.80;65.80;;;;;;5036754;28;20030;-25
2021/12/05 04:27:16;;;;;;;11.88;7.90;;;6.80;65.90;;;;;;5036368;28;20469;-26
2021/12/05 04:29:43;;;;;;;12.05;7.75;;;6.80;66.00;;;;;;5036295;28;20084;-25
2021/12/05 04:32:09;;;;;;;13.85;8.40;;;6.80;66.00;;;;;;5035951;28;20037;-25
2021/12/05 04:34:35;;;;;;;14.68;9.45;;;6.80;66.10;;;;;;5034593;28;20393;-24
2021/12/05 04:37:02;;;;;;;11.40;7.68;;;6.80;65.80;;;;;;5035903;28;20032;-24
2021/12/05 04:39:29;;;;;;;16.95;10.77;;;6.80;66.10;;;;;;5035834;28;20505;-24
2021/12/05 04:41:56;;;;;;;16.60;11.15;;;6.80;66.40;;;;;;5035867;28;20021;-24
2021/12/05 04:44:24;;;;;;;18.25;10.93;;;6.70;66.50;;;;;;5035635;28;20029;-25
2021/12/05 04:46:50;;;;;;;9.98;7.15;;;6.70;66.30;;;;;;5035561;28;20037;-24
2021/12/05 04:49:16;;;;;;;14.65;9.65;;;6.60;66.60;;;;;;5035724;28;20025;-24
2021/12/05 04:51:45;;;;;;;12.93;8.52;;;6.60;66.80;;;;;;5035459;28;20037;-24
2021/12/05 04:54:14;;;;;;;11.05;7.43;;;6.60;66.90;;;;;;5035890;28;20025;-24
2021/12/05 04:56:40;;;;;;;15.10;10.18;;;6.60;66.90;;;;;;5035542;28;20100;-25
2021/12/05 04:59:13;;;;;;;15.55;10.15;;;6.50;66.70;;;;;;5035790;28;20053;-24
2021/12/05 05:01:41;;;;;;;13.98;8.98;;;6.50;66.80;;;;;;5035792;28;20029;-25
2021/12/05 05:04:18;;;;;;;12.65;8.02;;;6.40;66.80;;;;;;5035714;28;20133;-25
2021/12/05 05:06:44;;;;;;;11.73;8.07;;;6.50;66.80;;;;;;5035307;28;20021;-23
2021/12/05 05:09:11;;;;;;;14.68;9.70;;;6.40;67.10;;;;;;5035612;28;20059;-24
2021/12/05 05:11:38;;;;;;;14.50;8.48;;;6.40;66.90;;;;;;5033996;28;20116;-23
2021/12/05 05:14:05;;;;;;;17.73;10.57;;;6.40;67.20;;;;;;5035153;28;20040;-25
2021/12/05 05:16:31;;;;;;;14.85;9.40;;;6.40;67.00;;;;;;5035067;28;20029;-25
2021/12/05 05:18:58;;;;;;;15.98;9.82;;;6.40;67.30;;;;;;5035445;28;20032;-25
2021/12/05 05:40:57;;;;;;;13.50;7.75;;;6.30;68.40;;;;;;5034889;28;20066;-25
2021/12/05 05:46:22;;;;;;;17.85;10.52;;;6.30;69.40;;;;;;5034652;28;20036;-25
2021/12/05 05:48:50;;;;;;;16.95;10.75;;;6.30;68.50;;;;;;5033754;28;20030;-24
2021/12/05 05:51:17;;;;;;;13.50;9.23;;;6.40;68.60;;;;;;5034469;28;20030;-24
2021/12/05 05:53:47;;;;;;;12.75;7.75;;;6.30;68.50;;;;;;5034385;28;20489;-24
2021/12/05 05:56:18;;;;;;;18.05;10.90;;;6.30;68.30;;;;;;5034499;28;20056;-24
2021/12/05 05:58:58;;;;;;;17.17;9.95;;;6.30;69.00;;;;;;5034085;28;20026;-25
2021/12/05 06:04:03;;;;;;;16.10;9.48;;;6.20;68.60;;;;;;5034396;28;20026;-24
2021/12/05 06:06:31;;;;;;;9.43;6.18;;;6.20;69.00;;;;;;5033958;28;20060;-25
2021/12/05 06:08:58;;;;;;;13.60;8.93;;;6.20;68.90;;;;;;5034486;28;20025;-23
2021/12/05 06:11:25;;;;;;;15.85;10.18;;;6.20;69.50;;;;;;5034042;28;20037;-25
2021/12/05 06:13:53;;;;;;;15.57;9.93;;;6.20;69.40;;;;;;5034313;28;20017;-23
2021/12/05 06:16:19;;;;;;;18.17;10.55;;;6.10;69.80;;;;;;5033909;28;20029;-23
2021/12/05 06:18:46;;;;;;;17.45;9.68;;;6.10;70.10;;;;;;5033982;28;20028;-22
2021/12/05 06:21:14;;;;;;;16.23;10.15;;;6.10;70.90;;;;;;5033837;28;20026;-22
2021/12/05 06:23:41;;;;;;;16.25;9.88;;;6.10;70.50;;;;;;5034637;28;20049;-21
2021/12/05 06:26:10;;;;;;;22.38;13.52;;;6.10;71.00;;;;;;5033863;28;20163;-21
2021/12/05 06:42:20;;;;;;;16.10;10.07;;;5.90;72.10;;;;;;5033683;28;20413;-18
2021/12/05 06:47:33;;;;;;;18.23;11.35;;;5.90;71.70;;;;;;5034102;28;20113;-20
2021/12/05 06:49:59;;;;;;;15.02;8.77;;;5.90;72.40;;;;;;5032233;28;20021;-20
2021/12/05 06:52:26;;;;;;;14.38;7.70;;;5.90;72.10;;;;;;5033400;28;20033;-20
2021/12/05 06:54:52;;;;;;;16.17;10.38;;;5.90;71.90;;;;;;5033390;28;20087;-19
2021/12/05 06:57:18;;;;;;;14.93;7.10;;;5.90;71.80;;;;;;5033689;28;20033;-20
2021/12/05 06:59:45;;;;;;;10.45;6.18;;;5.90;71.80;;;;;;5033459;28;20078;-20
2021/12/05 07:02:15;;;;;;;11.27;6.15;;;5.90;71.80;;;;;;5033502;28;20021;-23
2021/12/05 07:07:43;;;;;;;9.52;5.68;;;5.90;71.50;;;;;;5031201;28;20052;-21
2021/12/05 07:10:13;;;;;;;12.73;6.30;;;5.90;71.60;;;;;;5032247;28;20068;-21
2021/12/05 07:15:39;;;;;;;12.02;6.82;;;5.90;71.60;;;;;;5033515;28;20443;-20
2021/12/05 07:26:06;;;;;;;11.52;6.57;;;6.00;71.50;;;;;;5033389;28;20072;-20
2021/12/05 07:42:23;;;;;;;18.25;10.82;;;6.20;71.40;;;;;;5033333;28;20505;-22
2021/12/05 07:44:54;;;;;;;19.85;12.02;;;6.20;71.20;;;;;;5032944;28;20053;-22
2021/12/05 07:47:23;;;;;;;12.85;6.82;;;6.30;71.20;;;;;;5033121;28;20026;-22
2021/12/05 07:49:52;;;;;;;11.82;7.15;;;6.30;71.00;;;;;;5032822;28;20029;-22
2021/12/05 07:52:23;;;;;;;15.93;9.80;;;6.30;71.30;;;;;;5032513;28;20069;-21
2021/12/05 07:55:04;;;;;;;14.85;9.27;;;6.30;71.00;;;;;;5033104;28;20025;-21
2021/12/05 07:57:41;;;;;;;19.55;12.43;;;6.40;71.00;;;;;;5033081;28;20033;-20
2021/12/05 08:16:19;;;;;;;25.02;14.48;;;6.50;70.60;;;;;;5032770;28;20040;-21
2021/12/05 08:18:45;;;;;;;20.73;13.75;;;6.60;71.00;;;;;;5032540;28;20029;-20
2021/12/05 08:21:12;;;;;;;23.40;13.85;;;6.60;71.10;;;;;;5032473;28;20029;-20
2021/12/05 08:23:39;;;;;;;15.00;8.93;;;6.60;72.00;;;;;;5034678;28;20032;-22
2021/12/05 08:26:19;;;;;;;18.67;12.32;;;6.50;71.40;;;;;;5036431;28;20088;-21
2021/12/05 08:42:18;;;;;;;27.67;16.48;;;6.40;71.50;;;;;;5036178;28;20144;-22
2021/12/05 09:31:25;;;;;;;23.20;14.20;;;7.20;73.20;;;;;;5035065;28;20030;-21
2021/12/05 10:09:41;;;;;;;19.63;13.52;;;8.60;72.80;;;;;;5034732;28;20079;-21
2021/12/05 10:15:30;;;;;;;20.10;13.70;;;8.70;72.20;;;;;;5034444;28;20095;-20
2021/12/05 10:38:04;;;;;;;19.27;12.77;;;9.40;70.50;;;;;;5033708;28;20034;-21
2021/12/05 10:40:37;;;;;;;12.50;7.45;;;9.40;70.40;;;;;;5033806;28;20104;-21
2021/12/05 10:43:12;;;;;;;10.45;6.50;;;9.60;70.20;;;;;;5033959;28;20029;-21
2021/12/05 10:45:47;;;;;;;12.43;8.38;;;9.70;70.00;;;;;;5032707;28;20021;-21
2021/12/05 10:48:52;;;;;;;11.98;7.78;;;9.80;69.80;;;;;;5033693;28;20033;-21
2021/12/05 10:51:27;;;;;;;21.52;15.10;;;9.90;69.70;;;;;;5033778;28;20051;-21
2021/12/05 10:54:12;;;;;;;16.15;11.65;;;10.00;69.20;;;;;;5033364;28;20036;-21
2021/12/05 10:56:41;;;;;;;11.98;7.90;;;10.10;69.00;;;;;;5034126;28;20033;-21
2021/12/05 10:59:17;;;;;;;12.15;7.15;;;10.30;68.80;;;;;;5033749;28;20477;-21
2021/12/05 11:01:51;;;;;;;11.32;7.38;;;10.40;68.70;;;;;;5033334;28;20393;-21
2021/12/05 11:04:30;;;;;;;22.20;15.30;;;10.50;68.50;;;;;;5033419;28;20032;-22
2021/12/05 11:07:07;;;;;;;13.88;8.80;;;10.60;67.50;;;;;;5033441;28;20018;-21
2021/12/05 11:09:36;;;;;;;13.18;8.38;;;10.70;68.00;;;;;;5033259;28;20057;-20
2021/12/05 11:12:12;;;;;;;13.82;8.27;;;10.80;67.70;;;;;;5032205;28;20388;-22
2021/12/05 11:14:41;;;;;;;22.65;16.50;;;10.90;67.60;;;;;;5032056;28;20026;-22
2021/12/05 11:17:21;;;;;;;17.80;11.43;;;10.90;67.20;;;;;;5033496;28;20104;-21
2021/12/05 11:19:53;;;;;;;13.25;8.43;;;10.90;67.30;;;;;;5033467;28;20037;-23
2021/12/05 11:22:23;;;;;;;14.75;9.80;;;11.00;67.50;;;;;;5032795;28;20477;-22
2021/12/05 11:25:00;;;;;;;14.73;9.98;;;11.00;67.40;;;;;;5033647;28;20067;-22
2021/12/05 11:27:32;;;;;;;15.60;10.70;;;11.00;67.30;;;;;;5033067;28;20389;-22
2021/12/05 11:30:30;;;;;;;23.50;15.88;;;11.00;67.10;;;;;;5033344;28;20029;-22
2021/12/05 11:33:03;;;;;;;19.83;13.90;;;11.00;67.00;;;;;;5010822;28;20132;-22
2021/12/05 11:35:37;;;;;;;20.85;13.73;;;10.90;66.80;;;;;;5011336;28;20049;-21
2021/12/05 11:38:21;;;;;;;;;;;10.90;66.60;;;;;;5011706;28;20034;-22
2021/12/05 11:40:59;;;;;;;17.83;11.63;;;10.80;66.50;;;;;;5011247;28;19905;-22
2021/12/05 11:43:39;;;;;;;18.77;12.85;;;10.70;66.00;;;;;;4994768;28;20037;-21
2021/12/05 11:46:25;;;;;;;23.95;16.02;;;10.60;66.80;;;;;;5011202;28;20026;-22
2021/12/05 11:49:05;;;;;;;23.52;15.93;;;10.50;66.10;;;;;;5011155;28;20104;-22
2021/12/05 11:51:52;;;;;;;28.13;16.95;;;10.40;66.30;;;;;;5011051;28;20042;-22
2021/12/05 11:54:18;;;;;;;21.05;14.18;;;10.30;66.90;;;;;;5010745;28;20041;-22
2021/12/05 11:56:55;;;;;;;20.40;13.45;;;10.20;67.00;;;;;;5011568;28;20053;-22
2021/12/05 11:59:38;;;;;;;28.88;19.90;;;10.10;66.90;;;;;;5014855;28;20041;-21
2021/12/05 12:02:08;;;;;;;25.50;18.25;;;10.00;65.20;;;;;;5015434;28;20022;-21
2021/12/05 12:04:46;;;;;;;31.08;20.80;;;9.90;66.80;;;;;;5014792;28;20034;-22
2021/12/05 12:07:35;;;;;;;27.80;18.67;;;9.80;67.30;;;;;;5015061;28;20050;-21
2021/12/05 12:10:23;;;;;;;31.45;21.00;;;9.70;67.30;;;;;;5026372;28;20029;-22
2021/12/05 12:13:06;;;;;;;27.45;18.38;;;9.60;67.60;;;;;;5036395;28;20474;-21
2021/12/05 12:15:34;;;;;;;30.10;18.90;;;9.50;67.60;;;;;;5036700;28;20040;-22
2021/12/05 12:18:10;;;;;;;22.63;15.63;;;9.50;67.80;;;;;;5036313;28;20029;-22
2021/12/05 12:20:39;;;;;;;28.73;19.27;;;9.50;68.30;;;;;;5036649;28;20052;-22
2021/12/05 12:23:06;;;;;;;26.85;18.88;;;9.50;68.40;;;;;;5036130;28;20021;-22
2021/12/05 12:25:37;;;;;;;19.33;13.05;;;9.40;68.10;;;;;;5036210;28;20548;-22
2021/12/05 12:28:05;;;;;;;27.50;17.88;;;9.40;68.40;;;;;;5036100;28;20056;-22
2021/12/05 12:30:36;;;;;;;18.40;11.23;;;9.40;68.50;;;;;;5034669;28;20029;-22
2021/12/05 12:33:16;;;;;;;28.10;20.30;;;9.40;68.40;;;;;;5036458;28;20053;-22
2021/12/05 12:35:45;;;;;;;26.15;17.48;;;9.40;68.60;;;;;;5036053;28;20034;-22
2021/12/05 12:38:21;;;;;;;21.90;14.20;;;9.40;68.60;;;;;;5035844;28;20028;-21
2021/12/05 12:40:52;;;;;;;28.15;18.35;;;9.40;68.80;;;;;;5035903;28;20485;-21
2021/12/05 12:43:43;;;;;;;25.65;18.30;;;9.50;68.80;;;;;;5035886;28;20036;-22
2021/12/05 12:46:21;;;;;;;19.70;13.45;;;9.50;68.60;;;;;;5034556;28;20440;-22
2021/12/05 12:48:54;;;;;;;27.02;18.42;;;9.60;68.40;;;;;;5036293;28;20056;-22
2021/12/05 12:51:41;;;;;;;15.50;10.77;;;9.70;68.20;;;;;;5035976;28;20029;-22
2021/12/05 12:54:14;;;;;;;26.27;16.70;;;9.80;67.80;;;;;;5036045;28;20041;-22
2021/12/05 12:56:42;;;;;;;17.30;10.97;;;9.90;66.90;;;;;;5035874;28;20100;-22
2021/12/05 12:59:16;;;;;;;18.25;12.95;;;9.90;66.70;;;;;;5035580;28;20037;-22
2021/12/05 13:12:48;;;;;;;20.65;14.23;;;9.80;67.10;;;;;;5035128;28;20087;-21
2021/12/05 13:15:29;;;;;;;16.23;10.23;;;9.90;67.20;;;;;;5035318;28;20095;-22
2021/12/05 13:18:10;;;;;;;16.35;9.88;;;9.90;67.20;;;;;;5034097;28;20025;-23
2021/12/05 13:20:47;;;;;;;20.42;13.65;;;9.90;67.20;;;;;;5035736;28;20052;-22
2021/12/05 13:23:20;;;;;;;23.33;16.60;;;9.90;67.20;;;;;;5035059;28;20045;-22
2021/12/05 13:26:19;;;;;;;20.25;14.68;;;9.90;67.20;;;;;;5035427;28;20033;-22
2021/12/05 13:28:50;;;;;;;17.75;11.57;;;9.90;67.30;;;;;;5035011;28;20025;-22
2021/12/05 13:32:01;;;;;;;16.63;9.75;;;9.90;67.20;;;;;;5034938;28;20033;-23
2021/12/05 13:34:42;;;;;;;29.00;19.40;;;9.90;67.20;;;;;;5012695;28;20038;-22
2021/12/05 13:37:13;;;;;;;25.92;17.08;;;10.00;67.20;;;;;;5013010;28;20096;-22
2021/12/05 13:39:47;;;;;;;20.27;13.20;;;9.90;66.70;;;;;;5013207;28;20060;-22
2021/12/05 13:42:18;;;;;;;17.52;11.30;;;9.90;66.70;;;;;;5012783;28;20065;-22
2021/12/05 13:45:05;;;;;;;24.45;16.80;;;9.90;67.20;;;;;;5012850;28;20056;-22
2021/12/05 13:47:50;;;;;;;32.20;20.13;;;9.70;67.70;;;;;;5012838;28;20038;-21
2021/12/05 13:50:19;;;;;;;20.90;12.32;;;9.70;68.20;;;;;;5013247;28;20030;-22
2021/12/05 13:52:52;;;;;;;31.30;18.15;;;9.60;68.30;;;;;;5012608;28;20103;-23
2021/12/05 13:55:56;;;;;;;25.98;18.38;;;9.40;69.20;;;;;;5012669;28;20037;-22
2021/12/05 13:58:28;;;;;;;23.92;16.58;;;9.20;70.10;;;;;;5012523;28;20591;-21
2021/12/05 14:01:27;;;;;;;23.70;15.55;;;9.20;70.60;;;;;;5012649;28;20022;-21
2021/12/05 14:04:08;;;;;;;20.73;13.30;;;9.10;71.20;;;;;;5012607;28;20167;-22
2021/12/05 14:06:44;;;;;;;16.17;9.63;;;9.00;71.30;;;;;;5012210;28;20026;-22
2021/12/05 14:09:30;;;;;;;16.63;9.90;;;8.90;71.70;;;;;;5012483;28;20540;-21
2021/12/05 14:11:55;;;;;;;10.13;6.13;;;8.90;71.50;;;;;;5032882;28;20041;-21
2021/12/05 14:14:31;;;;;;;12.75;6.72;;;8.80;72.20;;;;;;5034000;28;20029;-22
2021/12/05 14:16:59;;;;;;;12.18;7.18;;;8.80;71.90;;;;;;5034153;28;20029;-22
2021/12/05 14:19:30;;;;;;;9.00;5.70;;;8.80;72.40;;;;;;5034044;28;20032;-23
2021/12/05 14:21:58;;;;;;;10.05;6.65;;;8.70;72.50;;;;;;5034303;28;20024;-21
2021/12/05 14:24:28;;;;;;;11.02;7.13;;;8.70;72.20;;;;;;5034074;28;20032;-20
2021/12/05 14:26:56;;;;;;;14.23;8.80;;;8.70;73.20;;;;;;5034244;28;20109;-19
2021/12/05 14:29:26;;;;;;;11.32;7.43;;;8.60;74.40;;;;;;5032644;28;20026;-19
2021/12/05 14:31:57;;;;;;;10.38;6.95;;;8.60;73.60;;;;;;5034052;28;20025;-19
2021/12/05 14:34:24;;;;;;;13.45;7.63;;;8.50;73.40;;;;;;5033404;28;20049;-19
2021/12/05 14:37:08;;;;;;;11.43;6.82;;;8.50;73.90;;;;;;5034087;28;20021;-20
2021/12/05 14:39:44;;;;;;;;;;;8.50;74.10;;;;;;5034310;28;20488;-20
2021/12/05 14:42:16;;;;;;;10.35;6.20;;;8.50;75.30;;;;;;5033673;28;19916;-21
2021/12/05 14:44:45;;;;;;;9.38;6.00;;;8.50;73.60;;;;;;5033634;28;20025;-21
2021/12/05 14:47:18;;;;;;;12.00;7.70;;;8.50;73.50;;;;;;5033545;28;20025;-20
2021/12/05 14:49:56;;;;;;;15.57;9.40;;;8.50;74.40;;;;;;5033900;28;20029;-22
2021/12/05 14:52:26;;;;;;;13.35;8.73;;;8.50;75.50;;;;;;5033489;28;20307;-20
2021/12/05 14:54:54;;;;;;;13.20;8.70;;;8.40;75.10;;;;;;5032283;28;20029;-20
2021/12/05 14:57:23;;;;;;;12.02;7.40;;;8.40;75.10;;;;;;5033722;28;20092;-20
2021/12/05 14:59:52;;;;;;;11.63;7.25;;;8.40;75.30;;;;;;5033408;28;20026;-19
2021/12/05 15:02:19;;;;;;;11.93;7.78;;;8.40;74.90;;;;;;5033450;28;20079;-20
2021/12/05 15:04:52;;;;;;;11.80;7.68;;;8.40;74.60;;;;;;5033932;28;20401;-21
2021/12/05 15:07:22;;;;;;;11.52;5.95;;;8.30;74.30;;;;;;5033231;28;20053;-20
2021/12/05 15:09:53;;;;;;;10.30;6.32;;;8.30;74.30;;;;;;5033328;28;20057;-20
2021/12/05 15:12:24;;;;;;;11.38;6.60;;;8.20;74.40;;;;;;5033267;28;20060;-20
2021/12/05 15:14:54;;;;;;;7.22;4.63;;;8.20;74.30;;;;;;5033506;28;20021;-21
2021/12/05 15:17:24;;;;;;;8.23;4.82;;;8.20;74.40;;;;;;5033213;28;20470;-21
2021/12/05 15:20:04;;;;;;;10.50;7.03;;;8.20;74.00;;;;;;5033395;28;20095;-20
2021/12/05 15:22:31;;;;;;;9.13;5.60;;;8.20;74.10;;;;;;5033067;28;20406;-21
2021/12/05 15:25:06;;;;;;;6.47;3.95;;;8.20;73.90;;;;;;5033373;28;20029;-20
2021/12/05 15:27:34;;;;;;;8.07;5.03;;;8.20;73.60;;;;;;5032998;28;20026;-21
2021/12/05 15:30:14;;;;;;;8.05;5.75;;;8.20;74.20;;;;;;5033266;28;20033;-20
2021/12/05 15:32:41;;;;;;;8.60;5.55;;;8.20;73.60;;;;;;5035072;28;20037;-20
2021/12/05 15:35:14;;;;;;;7.00;4.10;;;8.20;73.60;;;;;;5037581;28;20040;-21
2021/12/05 15:37:56;;;;;;;7.57;5.47;;;8.20;73.60;;;;;;5037003;28;20045;-20
2021/12/05 15:40:24;;;;;;;5.03;3.10;;;8.20;73.60;;;;;;5037222;28;20032;-20
2021/12/05 15:42:51;;;;;;;6.70;3.22;;;8.20;73.30;;;;;;5037265;28;20026;-20
2021/12/05 15:45:20;;;;;;;3.67;2.60;;;8.20;73.10;;;;;;5037251;28;20104;-21
2021/12/05 15:47:47;;;;;;;4.90;2.88;;;8.20;72.90;;;;;;5035681;28;20071;-21
2021/12/05 15:50:16;;;;;;;6.15;4.35;;;8.20;73.00;;;;;;5036930;28;20025;-20
2021/12/05 15:53:05;;;;;;;8.75;5.70;;;8.10;73.10;;;;;;5036591;28;20508;-20
2021/12/05 15:55:39;;;;;;;13.07;8.38;;;8.10;73.80;;;;;;5036715;28;20108;-20
2021/12/05 15:58:23;;;;;;;7.90;4.80;;;8.10;73.50;;;;;;5036774;28;20033;-19
2021/12/05 16:01:00;;;;;;;12.60;8.53;;;8.10;73.70;;;;;;5037084;28;20132;-22
2021/12/05 16:03:37;;;;;;;17.45;9.98;;;8.10;74.20;;;;;;5036592;28;20037;-19
2021/12/05 16:06:04;;;;;;;7.05;4.32;;;8.10;74.60;;;;;;5036599;28;20485;-21
2021/12/05 16:08:32;;;;;;;7.25;5.18;;;8.00;73.90;;;;;;5036575;28;20049;-20
2021/12/05 16:11:00;;;;;;;10.43;6.55;;;8.00;73.80;;;;;;5037097;28;20509;-20
2021/12/05 16:13:31;;;;;;;11.30;7.05;;;7.90;74.80;;;;;;5036329;28;20041;-20
2021/12/05 16:16:07;;;;;;;8.30;5.32;;;7.90;74.90;;;;;;5036718;28;20022;-20
2021/12/05 16:18:35;;;;;;;10.45;5.85;;;7.90;74.50;;;;;;5036466;28;20032;-20
2021/12/05 16:21:05;;;;;;;11.68;6.57;;;7.90;74.70;;;;;;5036576;28;20124;-20
2021/12/05 16:23:38;;;;;;;13.80;8.32;;;7.90;75.00;;;;;;5036500;28;20072;-20
2021/12/05 16:26:09;;;;;;;12.68;8.38;;;7.90;74.50;;;;;;5036511;28;20164;-20
2021/12/05 16:28:37;;;;;;;10.43;6.25;;;7.80;75.20;;;;;;5035757;28;20045;-21
2021/12/05 16:31:26;;;;;;;12.88;8.48;;;7.80;75.10;;;;;;5036118;28;20046;-20
2021/12/05 16:34:11;;;;;;;11.70;7.72;;;7.90;75.10;;;;;;5034508;28;20057;-19
2021/12/05 16:36:42;;;;;;;13.52;8.27;;;7.80;76.00;;;;;;5035970;28;20026;-21
2021/12/05 16:39:16;;;;;;;13.27;8.73;;;7.80;75.70;;;;;;5036685;28;20116;-21
2021/12/05 16:41:52;;;;;;;14.38;9.60;;;7.80;76.80;;;;;;5036305;28;20022;-21
2021/12/05 16:44:24;;;;;;;11.70;7.55;;;7.70;76.80;;;;;;5035974;28;20092;-22
2021/12/05 16:46:59;;;;;;;11.18;7.47;;;7.60;77.20;;;;;;5036195;28;20017;-21
2021/12/05 16:49:30;;;;;;;10.93;6.72;;;7.60;76.30;;;;;;5035841;28;20025;-22
2021/12/05 16:52:00;;;;;;;8.13;4.88;;;7.60;76.60;;;;;;5035624;28;20025;-21
2021/12/05 16:54:48;;;;;;;14.23;8.95;;;7.60;75.30;;;;;;5035566;28;20030;-20
2021/12/05 16:57:22;;;;;;;15.23;8.98;;;7.60;75.30;;;;;;5035995;28;20030;-20
2021/12/05 16:59:50;;;;;;;;;;;7.70;75.80;;;;;;5036292;28;20071;-21
2021/12/05 17:02:22;;;;;;;11.68;7.93;;;7.70;75.80;;;;;;5035639;28;19913;-21
2021/12/05 17:05:18;;;;;;;10.38;7.10;;;7.60;76.50;;;;;;5035500;28;20026;-20
2021/12/05 17:08:07;;;;;;;7.18;4.60;;;7.60;75.90;;;;;;5035707;28;20040;-21
2021/12/05 17:10:39;;;;;;;12.85;7.85;;;7.60;75.80;;;;;;5035457;28;20022;-22
2021/12/05 17:13:07;;;;;;;11.73;7.03;;;7.60;76.00;;;;;;5035573;28;20030;-21
2021/12/05 17:15:35;;;;;;;7.30;5.00;;;7.50;76.60;;;;;;5035540;28;20389;-21
2021/12/05 17:18:03;;;;;;;10.43;8.00;;;7.50;76.20;;;;;;5035345;28;20025;-22
2021/12/05 17:20:43;;;;;;;12.38;9.05;;;7.40;77.00;;;;;;5035010;28;20481;-21
2021/12/05 17:23:23;;;;;;;12.55;8.50;;;7.50;76.00;;;;;;5033876;28;20029;-20
2021/12/05 17:25:53;;;;;;;10.35;6.72;;;7.40;76.50;;;;;;5035444;28;20100;-23
2021/12/05 17:28:38;;;;;;;16.80;10.35;;;7.40;76.50;;;;;;5034911;28;20026;-23
2021/12/05 17:31:09;;;;;;;12.55;8.10;;;7.40;76.20;;;;;;5035625;28;20021;-22
2021/12/05 17:33:52;;;;;;;12.82;8.70;;;7.40;76.30;;;;;;5034833;28;20076;-23
2021/12/05 17:36:26;;;;;;;12.45;8.13;;;7.40;76.00;;;;;;5034794;28;20025;-21
2021/12/05 17:38:59;;;;;;;8.15;4.70;;;7.40;75.90;;;;;;5034849;28;20385;-22
2021/12/05 17:41:28;;;;;;;6.93;4.60;;;7.40;76.20;;;;;;5035069;28;20432;-22
2021/12/05 17:43:55;;;;;;;6.03;3.78;;;7.40;75.90;;;;;;5035085;28;20022;-21
2021/12/05 17:46:22;;;;;;;6.30;3.63;;;7.50;75.70;;;;;;5034529;28;20033;-22
2021/12/05 17:48:48;;;;;;;5.47;3.35;;;7.40;75.60;;;;;;5034674;28;20522;-21
2021/12/05 17:51:15;;;;;;;5.45;3.42;;;7.50;75.40;;;;;;5034603;28;20427;-21
2021/12/05 17:53:41;;;;;;;4.60;3.30;;;7.40;75.20;;;;;;5034787;28;20033;-21
2021/12/05 17:56:16;;;;;;;7.53;5.05;;;7.40;75.10;;;;;;5034308;28;20036;-20
2021/12/05 18:03:55;;;;;;;11.02;7.18;;;7.50;74.90;;;;;;5035005;28;20064;-22
2021/12/05 18:06:23;;;;;;;7.82;4.65;;;7.50;74.90;;;;;;5033981;28;20109;-21
2021/12/05 18:08:49;;;;;;;12.13;7.68;;;7.50;74.80;;;;;;5034523;28;20025;-20
2021/12/05 18:11:23;;;;;;;9.30;5.95;;;7.60;74.70;;;;;;5034241;28;20029;-21
2021/12/05 18:13:54;;;;;;;7.15;4.63;;;7.60;74.50;;;;;;5034277;28;20030;-23
2021/12/05 18:16:24;;;;;;;11.07;7.25;;;7.60;74.50;;;;;;5034281;28;20037;-23
2021/12/05 18:18:57;;;;;;;6.53;4.28;;;7.60;74.50;;;;;;5034091;28;20496;-23
2021/12/05 18:21:25;;;;;;;9.75;6.13;;;7.60;74.20;;;;;;5034344;28;20102;-23
2021/12/05 18:23:53;;;;;;;10.02;6.70;;;7.60;74.20;;;;;;5033981;28;20032;-22
2021/12/05 18:26:21;;;;;;;15.13;9.57;;;7.60;74.80;;;;;;5033766;28;20056;-21
2021/12/05 18:28:49;;;;;;;10.63;6.85;;;7.60;75.60;;;;;;5033942;28;20036;-21
2021/12/05 18:31:23;;;;;;;9.70;5.90;;;7.60;75.10;;;;;;5033878;28;20449;-21
2021/12/05 18:33:54;;;;;;;8.32;5.50;;;7.60;76.30;;;;;;5033711;28;20057;-21
2021/12/05 18:36:21;;;;;;;7.40;5.05;;;7.40;77.40;;;;;;5033820;28;20052;-22
2021/12/05 18:38:48;;;;;;;6.70;4.25;;;7.30;77.50;;;;;;5034140;28;20489;-21
2021/12/05 18:41:16;;;;;;;4.40;3.30;;;7.20;77.50;;;;;;5033682;28;20065;-21
2021/12/05 18:43:45;;;;;;;5.63;3.38;;;7.20;77.20;;;;;;5033645;28;20021;-22
2021/12/05 18:46:12;;;;;;;4.78;3.67;;;7.20;76.70;;;;;;5033591;28;20507;-24
2021/12/05 18:48:42;;;;;;;4.45;3.17;;;7.20;76.40;;;;;;5034248;28;20029;-21
2021/12/05 18:51:10;;;;;;;5.25;3.42;;;7.20;76.20;;;;;;5033563;28;20539;-21
2021/12/05 18:53:36;;;;;;;5.20;2.95;;;7.20;76.10;;;;;;5033642;28;20060;-21
2021/12/05 18:56:03;;;;;;;3.83;2.42;;;7.20;76.00;;;;;;5033400;28;20374;-21
2021/12/05 18:58:29;;;;;;;5.40;3.08;;;7.20;75.90;;;;;;5033534;28;20049;-21